Aurora — ZCDW9 — position and weather

sailwx.info

Track history (hours):
 
Tides and Currents Weather Stations Pressure Air Temp Water Temp Dewpoint Dewpoint Depression Visibility Wind Speed Wind Dir Waves Ship Positions

Aurora (Bermuda)

Last reported at 2019-Apr-25 08:33 UTC. Time now 2019-Apr-25 10:39 UTC.
Position N 48°05' W 005°34'.

Length 271 m; draft 8.3 m.

Type: Ship. MMSI: 310555970.

Date/timePositionNaut miles runAvg speedWind from/ knotsBaromVisibWave heightAir tempDewpointWater temp
2019-Apr-25 08:33N 48°05' W 005°34'1716.7
2019-Apr-25 07:33N 48°22' W 005°30'216.2
2019-Apr-25 07:25N 48°24' W 005°29'716.3
2019-Apr-25 07:01N 48°30' W 005°25'815.9
2019-Apr-25 06:31N 48°36' W 005°18'816.0
2019-Apr-25 06:01N 48°42' W 005°09'6359.3
2019-Apr-25 06:00N 48°36' W 005°12'1428.3 260 / 25991.910.8 10.0 5.612.0
2019-Apr-25 05:31N 48°47' W 004°60'816.5
2019-Apr-25 05:01N 48°53' W 004°51'917.1
2019-Apr-25 04:31N 48°58' W 004°41'917.6
2019-Apr-25 04:00N 49°04' W 004°31'3117.6
2019-Apr-25 02:13N 49°28' W 003°59'418.1
2019-Apr-25 02:00N 49°29' W 003°53'1018.0
2019-Apr-25 01:28N 49°36' W 003°42'818.0
2019-Apr-25 01:01N 49°41' W 003°33'917.9
2019-Apr-25 00:31N 49°48' W 003°23'917.2
2019-Apr-25 00:01N 49°51' W 003°11'917.0
2019-Apr-24 23:31N 49°55' W 002°59'816.5
2019-Apr-24 23:01N 49°59' W 002°48'816.3
2019-Apr-24 22:31N 50°01' W 002°36'816.3
2019-Apr-24 22:01N 50°05' W 002°24'816.5
2019-Apr-24 21:30N 50°09' W 002°13'816.9
2019-Apr-24 21:00N 50°13' W 002°01'917.2
2019-Apr-24 20:31N 50°17' W 001°49'917.7
2019-Apr-24 20:00N 50°21' W 001°37'918.2
2019-Apr-24 19:30N 50°25' W 001°24'917.7
2019-Apr-24 19:01N 50°29' W 001°12'917.6
2019-Apr-24 18:30N 50°34' W 001°00'714.8
2019-Apr-24 18:00N 50°41' W 000°58'612.6
2019-Apr-24 17:31N 50°45' W 001°06'815.3
2019-Apr-24 17:00N 50°47' W 001°18'4 8.6
2019-Apr-24 16:30N 50°51' W 001°20'4 8.5
2019-Apr-24 16:00N 50°54' W 001°25'1 1.8
2019-Apr-24 15:29N 50°54' W 001°26'0 0.0
2019-Apr-24 14:59N 50°54' W 001°26'0 0.0
2019-Apr-24 14:29N 50°54' W 001°26'0 0.0
2019-Apr-24 13:59N 50°54' W 001°26'0 0.0
2019-Apr-24 13:29N 50°54' W 001°26'0 0.0
2019-Apr-24 12:59N 50°54' W 001°26'0 0.0
2019-Apr-24 12:29N 50°54' W 001°26'0 0.0
2019-Apr-24 11:59N 50°54' W 001°26'0 0.0
2019-Apr-24 11:29N 50°54' W 001°26'0 0.0
2019-Apr-24 10:59N 50°54' W 001°26'0 0.0
2019-Apr-24 10:29N 50°54' W 001°26'0 0.0
2019-Apr-24 09:59N 50°54' W 001°26'0 0.0
2019-Apr-24 09:29N 50°54' W 001°26'0 0.0
2019-Apr-24 08:59N 50°54' W 001°26'0 0.0
2019-Apr-24 08:23N 50°54' W 001°26'0 0.0
2019-Apr-24 07:59N 50°54' W 001°26'0 0.0
2019-Apr-24 07:29N 50°54' W 001°26'0 0.0
2019-Apr-24 06:59N 50°54' W 001°26'0 0.0
2019-Apr-24 06:23N 50°54' W 001°26'0 0.0
2019-Apr-24 05:59N 50°54' W 001°26'0 0.0
2019-Apr-24 05:29N 50°54' W 001°26'0 0.1
2019-Apr-24 05:01N 50°54' W 001°26'1 1.9
2019-Apr-24 04:31N 50°54' W 001°25'4 8.6
2019-Apr-24 04:01N 50°51' W 001°20'4 8.6
2019-Apr-24 03:30N 50°46' W 001°18'816.7
2019-Apr-24 03:00N 50°45' W 001°05'612.8
2019-Apr-24 02:31N 50°40' W 000°58'510.5
2019-Apr-24 02:00N 50°35' W 000°60'510.8
2019-Apr-24 01:30N 50°31' W 001°06'612.0
2019-Apr-24 01:00N 50°29' W 001°15'612.0
2019-Apr-24 00:30N 50°27' W 001°24'714.8
2019-Apr-24 00:00N 50°25' W 001°35'917.5
2019-Apr-23 23:30N 50°23' W 001°48'815.5
2019-Apr-23 23:00N 50°20' W 001°60'714.5
2019-Apr-23 22:30N 50°18' W 002°10'816.4
2019-Apr-23 22:00N 50°15' W 002°22'917.1
2019-Apr-23 21:30N 50°14' W 002°36'817.0
2019-Apr-23 21:00N 50°13' W 002°49'816.7
2019-Apr-23 20:30N 50°09' W 003°01'816.7
2019-Apr-23 20:00N 50°06' W 003°12'816.6
2019-Apr-23 19:30N 50°02' W 003°24'816.2
2019-Apr-23 19:00N 49°59' W 003°36'815.9
2019-Apr-23 18:30N 49°56' W 003°47'815.7
2019-Apr-23 18:00N 49°53' W 003°58'815.5
2019-Apr-23 17:30N 49°50' W 004°09'815.5
2019-Apr-23 17:00N 49°47' W 004°21'1315.4
2019-Apr-23 16:10N 49°41' W 004°38'315.1
2019-Apr-23 15:58N 49°40' W 004°43'1818.5
2019-Apr-23 15:00N 49°30' W 005°06'7712.8 130 / 22993.3 5.4 12.510.612.0
2019-Apr-23 09:00N 49°00' W 006°54'8016.0 150 / 24993.3 5.4 13.212.812.0
2019-Apr-23 04:00N 48°24' W 008°42'9415.7 140 / 21991.2 5.4 11.010.212.0
2019-Apr-22 22:00N 47°42' W 010°48'13516.9 360 / 30991.3 5.4 10.0 9.012.0
2019-Apr-22 14:00N 46°30' W 013°36'13416.7 350 / 35995.4 5.4 11.0 4.312.0
2019-Apr-22 06:00N 45°12' W 016°12'16016.0 320 / 35999.9 5.4 11.811.012.0
2019-Apr-21 20:00N 43°36' W 019°12'19217.5 240 / 161014.7 1.1 13.813.614.0
2019-Apr-21 09:00N 41°36' W 022°36'2221.6 040 / 131026.7 5.4 10.310.315.0
2019-Apr-21 08:00N 41°24' W 023°00'6117.9 020 / 131026.8 5.4 16.5 9.916.0
2019-Apr-21 04:35N 40°46' W 024°03'119.0
2019-Apr-21 04:30N 40°45' W 024°05'4318.0
2019-Apr-21 02:08N 40°17' W 024°47'1817.9
2019-Apr-21 01:09N 40°05' W 025°04'318.2
2019-Apr-21 01:00N 40°03' W 025°07'1018.0
2019-Apr-21 00:26N 39°57' W 025°17'818.1
2019-Apr-21 00:00N 39°51' W 025°25'1018.0
2019-Apr-20 23:28N 39°45' W 025°34'1018.1
2019-Apr-20 22:54N 39°38' W 025°44'717.9
2019-Apr-20 22:30N 39°33' W 025°51'917.8
2019-Apr-20 21:59N 39°27' W 025°60'917.6
2019-Apr-20 21:30N 39°22' W 026°08'917.7
2019-Apr-20 21:00N 39°16' W 026°16'15984.9
2019-Apr-20 21:00N 39°24' W 026°00'2546.3 060 / 171030.310.8 16.512.916.0
2019-Apr-20 20:28N 39°09' W 026°25'1017.5
2019-Apr-20 19:55N 39°03' W 026°35'717.5
2019-Apr-20 19:30N 38°58' W 026°41'917.6
2019-Apr-20 19:00N 38°52' W 026°50'816.8
2019-Apr-20 18:31N 38°46' W 026°57'510.7
2019-Apr-20 18:00N 38°43' W 027°03'0 0.7
2019-Apr-20 17:28N 38°43' W 027°03'0 0.0
2019-Apr-20 16:55N 38°43' W 027°03'0 0.0
2019-Apr-20 16:28N 38°43' W 027°03'0 0.0
2019-Apr-20 15:58N 38°43' W 027°03'0 0.0
2019-Apr-20 15:28N 38°43' W 027°03'0 0.0
2019-Apr-20 14:58N 38°43' W 027°03'0 0.0
2019-Apr-20 14:28N 38°43' W 027°03'0 0.0
2019-Apr-20 13:58N 38°43' W 027°03'0 0.0
2019-Apr-20 13:28N 38°43' W 027°03'0 0.0
2019-Apr-20 12:49N 38°43' W 027°03'0 0.0
2019-Apr-20 12:28N 38°43' W 027°03'0 0.0
2019-Apr-20 11:58N 38°43' W 027°03'0 0.0
2019-Apr-20 11:28N 38°43' W 027°03'0 0.0
2019-Apr-20 10:58N 38°43' W 027°03'0 0.0
2019-Apr-20 10:28N 38°43' W 027°03'0 0.0
2019-Apr-20 09:58N 38°43' W 027°03'0 0.0
2019-Apr-20 09:28N 38°43' W 027°03'0 0.0
2019-Apr-20 08:58N 38°43' W 027°03'0 0.0
2019-Apr-20 08:28N 38°43' W 027°03'0 0.0
2019-Apr-20 07:55N 38°43' W 027°03'0 1.0
2019-Apr-20 07:30N 38°43' W 027°03'2 4.2
2019-Apr-20 07:00N 38°43' W 027°00'5 9.5
2019-Apr-20 06:31N 38°41' W 026°55'510.7
2019-Apr-20 06:00N 38°39' W 026°49'510.4
2019-Apr-20 05:30N 38°36' W 026°43'510.8
2019-Apr-20 05:00N 38°34' W 026°37'510.6
2019-Apr-20 04:30N 38°31' W 026°31'510.8
2019-Apr-20 04:00N 38°28' W 026°25'510.8
2019-Apr-20 03:30N 38°26' W 026°19'511.0
2019-Apr-20 03:01N 38°23' W 026°13'4237.6
2019-Apr-20 03:00N 38°24' W 026°18'919.5 090 / 91030.2 5.4 16.215.916.0
2019-Apr-20 02:31N 38°20' W 026°07'510.7
2019-Apr-20 02:00N 38°18' W 026°01'714.3
2019-Apr-20 01:30N 38°14' W 025°53'815.7
2019-Apr-20 01:01N 38°10' W 025°45'510.7
2019-Apr-20 00:30N 38°07' W 025°39'510.4
2019-Apr-20 00:00N 38°05' W 025°33'510.4
2019-Apr-19 23:30N 38°02' W 025°27'510.4
2019-Apr-19 23:01N 37°60' W 025°21'510.3
2019-Apr-19 22:30N 37°57' W 025°16'510.4
2019-Apr-19 22:01N 37°55' W 025°10'510.1
2019-Apr-19 21:31N 37°51' W 025°05'510.8
2019-Apr-19 21:00N 37°46' W 025°04'3156.0
2019-Apr-19 21:00N 37°48' W 025°06'714.0 240 / 51029.010.8 17.516.316.0
2019-Apr-19 20:30N 37°42' W 025°08'510.3
2019-Apr-19 20:00N 37°41' W 025°15'510.4
2019-Apr-19 19:31N 37°40' W 025°21'510.4
2019-Apr-19 19:01N 37°40' W 025°28'510.2
2019-Apr-19 18:31N 37°41' W 025°34'510.1
2019-Apr-19 18:01N 37°44' W 025°39'0 0.8
2019-Apr-19 17:29N 37°44' W 025°40'0 0.0
2019-Apr-19 16:58N 37°44' W 025°40'0 0.0
2019-Apr-19 16:28N 37°44' W 025°40'0 0.0
2019-Apr-19 15:58N 37°44' W 025°40'0 0.0
2019-Apr-19 15:28N 37°44' W 025°40'0 0.0
2019-Apr-19 14:58N 37°44' W 025°40'0 0.0
2019-Apr-19 14:28N 37°44' W 025°40'0 0.0
2019-Apr-19 13:58N 37°44' W 025°40'0 0.0
2019-Apr-19 13:28N 37°44' W 025°40'0 0.0
2019-Apr-19 12:58N 37°44' W 025°40'0 0.0
2019-Apr-19 12:28N 37°44' W 025°40'0 0.0
2019-Apr-19 11:58N 37°44' W 025°40'0 0.0
2019-Apr-19 11:28N 37°44' W 025°40'0 0.0
2019-Apr-19 10:58N 37°44' W 025°40'0 0.0
2019-Apr-19 10:28N 37°44' W 025°40'0 0.0
2019-Apr-19 09:58N 37°44' W 025°40'0 0.0
2019-Apr-19 09:28N 37°44' W 025°40'0 0.0
2019-Apr-19 08:58N 37°44' W 025°40'0 0.0
2019-Apr-19 08:28N 37°44' W 025°40'0 0.0
2019-Apr-19 07:58N 37°44' W 025°40'0 0.0
2019-Apr-19 07:28N 37°44' W 025°40'0 0.0
2019-Apr-19 06:58N 37°44' W 025°40'0 0.9
2019-Apr-19 06:30N 37°44' W 025°39'3 6.2
2019-Apr-19 06:00N 37°42' W 025°37'510.5
2019-Apr-19 05:30N 37°38' W 025°32'510.8
2019-Apr-19 05:00N 37°35' W 025°26'510.6
2019-Apr-19 04:30N 37°32' W 025°21'510.6
2019-Apr-19 04:00N 37°29' W 025°15'611.0
2019-Apr-19 03:30N 37°26' W 025°10'611.3
2019-Apr-19 03:00N 37°22' W 025°04'611.1
2019-Apr-19 02:30N 37°19' W 024°58'510.9
2019-Apr-19 02:00N 37°16' W 024°53'611.1
2019-Apr-19 01:30N 37°13' W 024°47'510.9
2019-Apr-19 01:00N 37°09' W 024°42'815.5
2019-Apr-19 00:30N 37°05' W 024°34'611.5
2019-Apr-19 00:00N 37°01' W 024°28'612.1
2019-Apr-18 23:31N 36°58' W 024°22'612.2
2019-Apr-18 23:00N 36°54' W 024°16'612.1
2019-Apr-18 22:30N 36°51' W 024°10'611.9
2019-Apr-18 22:00N 36°47' W 024°04'611.9
2019-Apr-18 21:30N 36°43' W 023°58'611.6
2019-Apr-18 21:00N 36°40' W 023°52'3164.9
2019-Apr-18 21:00N 36°42' W 023°54'817.0 330 / 71025.710.8 17.216.916.0
2019-Apr-18 20:30N 36°36' W 023°46'611.5
2019-Apr-18 20:00N 36°33' W 023°41'611.8
2019-Apr-18 19:30N 36°30' W 023°35'611.9
2019-Apr-18 19:00N 36°26' W 023°29'611.6
2019-Apr-18 18:30N 36°23' W 023°23'611.5
2019-Apr-18 18:01N 36°19' W 023°17'611.5
2019-Apr-18 17:30N 36°16' W 023°11'611.5
2019-Apr-18 16:57N 36°12' W 023°05'511.6
2019-Apr-18 16:30N 36°09' W 022°60'611.7
2019-Apr-18 15:59N 36°05' W 022°54'711.8
2019-Apr-18 15:23N 36°01' W 022°47'411.6
2019-Apr-18 15:00N 35°59' W 022°42'611.4
2019-Apr-18 14:29N 35°55' W 022°37'2013.4
2019-Apr-18 13:00N 35°42' W 022°18'6512.9 290 / 141023.2 2.2 16.215.518.0
2019-Apr-18 08:00N 35°06' W 021°12'2726.7 360 / 171023.110.8 15.1 5.216.0
2019-Apr-18 07:00N 34°48' W 020°48'13412.2 350 / 201021.410.8 16.013.318.0
2019-Apr-17 20:00N 33°30' W 018°36'203 4.4 360 / 231018.810.8 16.710.719.0
2019-Apr-15 22:00N 30°18' W 017°18'   100 / 191020.810.8 18.512.619.0
Track history (hours):
 
Tides and Currents Weather Stations Pressure Air Temp Water Temp Dewpoint Dewpoint Depression Visibility Wind Speed Wind Dir Waves Ship Positions

Aurora (Bermuda)

Last reported at 2019-Apr-25 08:33 UTC. Time now 2019-Apr-25 10:39 UTC.
Position N 48°05' W 005°34'.

Length 271 m; draft 8.3 m.

Type: Ship. MMSI: 310555970.

Date/timePositionNaut miles runAvg speedWind from/ knotsBaromVisibWave heightAir tempDewpointWater temp
2019-Apr-25 08:33N 48°05' W 005°34'1716.7
2019-Apr-25 07:33N 48°22' W 005°30'216.2
2019-Apr-25 07:25N 48°24' W 005°29'716.3
2019-Apr-25 07:01N 48°30' W 005°25'815.9
2019-Apr-25 06:31N 48°36' W 005°18'816.0
2019-Apr-25 06:01N 48°42' W 005°09'6359.3
2019-Apr-25 06:00N 48°36' W 005°12'1428.3 260 / 25991.910.8 10.0 5.612.0
2019-Apr-25 05:31N 48°47' W 004°60'816.5
2019-Apr-25 05:01N 48°53' W 004°51'917.1
2019-Apr-25 04:31N 48°58' W 004°41'917.6
2019-Apr-25 04:00N 49°04' W 004°31'3117.6
2019-Apr-25 02:13N 49°28' W 003°59'418.1
2019-Apr-25 02:00N 49°29' W 003°53'1018.0
2019-Apr-25 01:28N 49°36' W 003°42'818.0
2019-Apr-25 01:01N 49°41' W 003°33'917.9
2019-Apr-25 00:31N 49°48' W 003°23'917.2
2019-Apr-25 00:01N 49°51' W 003°11'917.0
2019-Apr-24 23:31N 49°55' W 002°59'816.5
2019-Apr-24 23:01N 49°59' W 002°48'816.3
2019-Apr-24 22:31N 50°01' W 002°36'816.3
2019-Apr-24 22:01N 50°05' W 002°24'816.5
2019-Apr-24 21:30N 50°09' W 002°13'816.9
2019-Apr-24 21:00N 50°13' W 002°01'917.2
2019-Apr-24 20:31N 50°17' W 001°49'917.7
2019-Apr-24 20:00N 50°21' W 001°37'918.2
2019-Apr-24 19:30N 50°25' W 001°24'917.7
2019-Apr-24 19:01N 50°29' W 001°12'917.6
2019-Apr-24 18:30N 50°34' W 001°00'714.8
2019-Apr-24 18:00N 50°41' W 000°58'612.6
2019-Apr-24 17:31N 50°45' W 001°06'815.3
2019-Apr-24 17:00N 50°47' W 001°18'4 8.6
2019-Apr-24 16:30N 50°51' W 001°20'4 8.5
2019-Apr-24 16:00N 50°54' W 001°25'1 1.8
2019-Apr-24 15:29N 50°54' W 001°26'0 0.0
2019-Apr-24 14:59N 50°54' W 001°26'0 0.0
2019-Apr-24 14:29N 50°54' W 001°26'0 0.0
2019-Apr-24 13:59N 50°54' W 001°26'0 0.0
2019-Apr-24 13:29N 50°54' W 001°26'0 0.0
2019-Apr-24 12:59N 50°54' W 001°26'0 0.0
2019-Apr-24 12:29N 50°54' W 001°26'0 0.0
2019-Apr-24 11:59N 50°54' W 001°26'0 0.0
2019-Apr-24 11:29N 50°54' W 001°26'0 0.0
2019-Apr-24 10:59N 50°54' W 001°26'0 0.0
2019-Apr-24 10:29N 50°54' W 001°26'0 0.0
2019-Apr-24 09:59N 50°54' W 001°26'0 0.0
2019-Apr-24 09:29N 50°54' W 001°26'0 0.0
2019-Apr-24 08:59N 50°54' W 001°26'0 0.0
2019-Apr-24 08:23N 50°54' W 001°26'0 0.0
2019-Apr-24 07:59N 50°54' W 001°26'0 0.0
2019-Apr-24 07:29N 50°54' W 001°26'0 0.0
2019-Apr-24 06:59N 50°54' W 001°26'0 0.0
2019-Apr-24 06:23N 50°54' W 001°26'0 0.0
2019-Apr-24 05:59N 50°54' W 001°26'0 0.0
2019-Apr-24 05:29N 50°54' W 001°26'0 0.1
2019-Apr-24 05:01N 50°54' W 001°26'1 1.9
2019-Apr-24 04:31N 50°54' W 001°25'4 8.6
2019-Apr-24 04:01N 50°51' W 001°20'4 8.6
2019-Apr-24 03:30N 50°46' W 001°18'816.7
2019-Apr-24 03:00N 50°45' W 001°05'612.8
2019-Apr-24 02:31N 50°40' W 000°58'510.5
2019-Apr-24 02:00N 50°35' W 000°60'510.8
2019-Apr-24 01:30N 50°31' W 001°06'612.0
2019-Apr-24 01:00N 50°29' W 001°15'612.0
2019-Apr-24 00:30N 50°27' W 001°24'714.8
2019-Apr-24 00:00N 50°25' W 001°35'917.5
2019-Apr-23 23:30N 50°23' W 001°48'815.5
2019-Apr-23 23:00N 50°20' W 001°60'714.5
2019-Apr-23 22:30N 50°18' W 002°10'816.4
2019-Apr-23 22:00N 50°15' W 002°22'917.1
2019-Apr-23 21:30N 50°14' W 002°36'817.0
2019-Apr-23 21:00N 50°13' W 002°49'816.7
2019-Apr-23 20:30N 50°09' W 003°01'816.7
2019-Apr-23 20:00N 50°06' W 003°12'816.6
2019-Apr-23 19:30N 50°02' W 003°24'816.2
2019-Apr-23 19:00N 49°59' W 003°36'815.9
2019-Apr-23 18:30N 49°56' W 003°47'815.7
2019-Apr-23 18:00N 49°53' W 003°58'815.5
2019-Apr-23 17:30N 49°50' W 004°09'815.5
2019-Apr-23 17:00N 49°47' W 004°21'1315.4
2019-Apr-23 16:10N 49°41' W 004°38'315.1
2019-Apr-23 15:58N 49°40' W 004°43'1818.5
2019-Apr-23 15:00N 49°30' W 005°06'7712.8 130 / 22993.3 5.4 12.510.612.0
2019-Apr-23 09:00N 49°00' W 006°54'8016.0 150 / 24993.3 5.4 13.212.812.0
2019-Apr-23 04:00N 48°24' W 008°42'9415.7 140 / 21991.2 5.4 11.010.212.0
2019-Apr-22 22:00N 47°42' W 010°48'13516.9 360 / 30991.3 5.4 10.0 9.012.0
2019-Apr-22 14:00N 46°30' W 013°36'13416.7 350 / 35995.4 5.4 11.0 4.312.0
2019-Apr-22 06:00N 45°12' W 016°12'16016.0 320 / 35999.9 5.4 11.811.012.0
2019-Apr-21 20:00N 43°36' W 019°12'19217.5 240 / 161014.7 1.1 13.813.614.0
2019-Apr-21 09:00N 41°36' W 022°36'2221.6 040 / 131026.7 5.4 10.310.315.0
2019-Apr-21 08:00N 41°24' W 023°00'6117.9 020 / 131026.8 5.4 16.5 9.916.0
2019-Apr-21 04:35N 40°46' W 024°03'119.0
2019-Apr-21 04:30N 40°45' W 024°05'4318.0
2019-Apr-21 02:08N 40°17' W 024°47'1817.9
2019-Apr-21 01:09N 40°05' W 025°04'318.2
2019-Apr-21 01:00N 40°03' W 025°07'1018.0
2019-Apr-21 00:26N 39°57' W 025°17'818.1
2019-Apr-21 00:00N 39°51' W 025°25'1018.0
2019-Apr-20 23:28N 39°45' W 025°34'1018.1
2019-Apr-20 22:54N 39°38' W 025°44'717.9
2019-Apr-20 22:30N 39°33' W 025°51'917.8
2019-Apr-20 21:59N 39°27' W 025°60'917.6
2019-Apr-20 21:30N 39°22' W 026°08'917.7
2019-Apr-20 21:00N 39°16' W 026°16'15984.9
2019-Apr-20 21:00N 39°24' W 026°00'2546.3 060 / 171030.310.8 16.512.916.0
2019-Apr-20 20:28N 39°09' W 026°25'1017.5
2019-Apr-20 19:55N 39°03' W 026°35'717.5
2019-Apr-20 19:30N 38°58' W 026°41'917.6
2019-Apr-20 19:00N 38°52' W 026°50'816.8
2019-Apr-20 18:31N 38°46' W 026°57'510.7
2019-Apr-20 18:00N 38°43' W 027°03'0 0.7
2019-Apr-20 17:28N 38°43' W 027°03'0 0.0
2019-Apr-20 16:55N 38°43' W 027°03'0 0.0
2019-Apr-20 16:28N 38°43' W 027°03'0 0.0
2019-Apr-20 15:58N 38°43' W 027°03'0 0.0
2019-Apr-20 15:28N 38°43' W 027°03'0 0.0
2019-Apr-20 14:58N 38°43' W 027°03'0 0.0
2019-Apr-20 14:28N 38°43' W 027°03'0 0.0
2019-Apr-20 13:58N 38°43' W 027°03'0 0.0
2019-Apr-20 13:28N 38°43' W 027°03'0 0.0
2019-Apr-20 12:49N 38°43' W 027°03'0 0.0
2019-Apr-20 12:28N 38°43' W 027°03'0 0.0
2019-Apr-20 11:58N 38°43' W 027°03'0 0.0
2019-Apr-20 11:28N 38°43' W 027°03'0 0.0
2019-Apr-20 10:58N 38°43' W 027°03'0 0.0
2019-Apr-20 10:28N 38°43' W 027°03'0 0.0
2019-Apr-20 09:58N 38°43' W 027°03'0 0.0
2019-Apr-20 09:28N 38°43' W 027°03'0 0.0
2019-Apr-20 08:58N 38°43' W 027°03'0 0.0
2019-Apr-20 08:28N 38°43' W 027°03'0 0.0
2019-Apr-20 07:55N 38°43' W 027°03'0 1.0
2019-Apr-20 07:30N 38°43' W 027°03'2 4.2
2019-Apr-20 07:00N 38°43' W 027°00'5 9.5
2019-Apr-20 06:31N 38°41' W 026°55'510.7
2019-Apr-20 06:00N 38°39' W 026°49'510.4
2019-Apr-20 05:30N 38°36' W 026°43'510.8
2019-Apr-20 05:00N 38°34' W 026°37'510.6
2019-Apr-20 04:30N 38°31' W 026°31'510.8
2019-Apr-20 04:00N 38°28' W 026°25'510.8
2019-Apr-20 03:30N 38°26' W 026°19'511.0
2019-Apr-20 03:01N 38°23' W 026°13'4237.6
2019-Apr-20 03:00N 38°24' W 026°18'919.5 090 / 91030.2 5.4 16.215.916.0
2019-Apr-20 02:31N 38°20' W 026°07'510.7
2019-Apr-20 02:00N 38°18' W 026°01'714.3
2019-Apr-20 01:30N 38°14' W 025°53'815.7
2019-Apr-20 01:01N 38°10' W 025°45'510.7
2019-Apr-20 00:30N 38°07' W 025°39'510.4
2019-Apr-20 00:00N 38°05' W 025°33'510.4
2019-Apr-19 23:30N 38°02' W 025°27'510.4
2019-Apr-19 23:01N 37°60' W 025°21'510.3
2019-Apr-19 22:30N 37°57' W 025°16'510.4
2019-Apr-19 22:01N 37°55' W 025°10'510.1
2019-Apr-19 21:31N 37°51' W 025°05'510.8
2019-Apr-19 21:00N 37°46' W 025°04'3156.0
2019-Apr-19 21:00N 37°48' W 025°06'714.0 240 / 51029.010.8 17.516.316.0
2019-Apr-19 20:30N 37°42' W 025°08'510.3
2019-Apr-19 20:00N 37°41' W 025°15'510.4
2019-Apr-19 19:31N 37°40' W 025°21'510.4
2019-Apr-19 19:01N 37°40' W 025°28'510.2
2019-Apr-19 18:31N 37°41' W 025°34'510.1
2019-Apr-19 18:01N 37°44' W 025°39'0 0.8
2019-Apr-19 17:29N 37°44' W 025°40'0 0.0
2019-Apr-19 16:58N 37°44' W 025°40'0 0.0
2019-Apr-19 16:28N 37°44' W 025°40'0 0.0
2019-Apr-19 15:58N 37°44' W 025°40'0 0.0
2019-Apr-19 15:28N 37°44' W 025°40'0 0.0
2019-Apr-19 14:58N 37°44' W 025°40'0 0.0
2019-Apr-19 14:28N 37°44' W 025°40'0 0.0
2019-Apr-19 13:58N 37°44' W 025°40'0 0.0
2019-Apr-19 13:28N 37°44' W 025°40'0 0.0
2019-Apr-19 12:58N 37°44' W 025°40'0 0.0
2019-Apr-19 12:28N 37°44' W 025°40'0 0.0
2019-Apr-19 11:58N 37°44' W 025°40'0 0.0
2019-Apr-19 11:28N 37°44' W 025°40'0 0.0
2019-Apr-19 10:58N 37°44' W 025°40'0 0.0
2019-Apr-19 10:28N 37°44' W 025°40'0 0.0
2019-Apr-19 09:58N 37°44' W 025°40'0 0.0
2019-Apr-19 09:28N 37°44' W 025°40'0 0.0
2019-Apr-19 08:58N 37°44' W 025°40'0 0.0
2019-Apr-19 08:28N 37°44' W 025°40'0 0.0
2019-Apr-19 07:58N 37°44' W 025°40'0 0.0
2019-Apr-19 07:28N 37°44' W 025°40'0 0.0
2019-Apr-19 06:58N 37°44' W 025°40'0 0.9
2019-Apr-19 06:30N 37°44' W 025°39'3 6.2
2019-Apr-19 06:00N 37°42' W 025°37'510.5
2019-Apr-19 05:30N 37°38' W 025°32'510.8
2019-Apr-19 05:00N 37°35' W 025°26'510.6
2019-Apr-19 04:30N 37°32' W 025°21'510.6
2019-Apr-19 04:00N 37°29' W 025°15'611.0
2019-Apr-19 03:30N 37°26' W 025°10'611.3
2019-Apr-19 03:00N 37°22' W 025°04'611.1
2019-Apr-19 02:30N 37°19' W 024°58'510.9
2019-Apr-19 02:00N 37°16' W 024°53'611.1
2019-Apr-19 01:30N 37°13' W 024°47'510.9
2019-Apr-19 01:00N 37°09' W 024°42'815.5
2019-Apr-19 00:30N 37°05' W 024°34'611.5
2019-Apr-19 00:00N 37°01' W 024°28'612.1
2019-Apr-18 23:31N 36°58' W 024°22'612.2
2019-Apr-18 23:00N 36°54' W 024°16'612.1
2019-Apr-18 22:30N 36°51' W 024°10'611.9
2019-Apr-18 22:00N 36°47' W 024°04'611.9
2019-Apr-18 21:30N 36°43' W 023°58'611.6
2019-Apr-18 21:00N 36°40' W 023°52'3164.9
2019-Apr-18 21:00N 36°42' W 023°54'817.0 330 / 71025.710.8 17.216.916.0
2019-Apr-18 20:30N 36°36' W 023°46'611.5
2019-Apr-18 20:00N 36°33' W 023°41'611.8
2019-Apr-18 19:30N 36°30' W 023°35'611.9
2019-Apr-18 19:00N 36°26' W 023°29'611.6
2019-Apr-18 18:30N 36°23' W 023°23'611.5
2019-Apr-18 18:01N 36°19' W 023°17'611.5
2019-Apr-18 17:30N 36°16' W 023°11'611.5
2019-Apr-18 16:57N 36°12' W 023°05'511.6
2019-Apr-18 16:30N 36°09' W 022°60'611.7
2019-Apr-18 15:59N 36°05' W 022°54'711.8
2019-Apr-18 15:23N 36°01' W 022°47'411.6
2019-Apr-18 15:00N 35°59' W 022°42'611.4
2019-Apr-18 14:29N 35°55' W 022°37'2013.4
2019-Apr-18 13:00N 35°42' W 022°18'6512.9 290 / 141023.2 2.2 16.215.518.0
2019-Apr-18 08:00N 35°06' W 021°12'2726.7 360 / 171023.110.8 15.1 5.216.0
2019-Apr-18 07:00N 34°48' W 020°48'13412.2 350 / 201021.410.8 16.013.318.0
2019-Apr-17 20:00N 33°30' W 018°36'203 4.4 360 / 231018.810.8 16.710.719.0
2019-Apr-15 22:00N 30°18' W 017°18'   100 / 191020.810.8 18.512.619.0

Dump ship's entire track history